createdAt,value
2018-05-07T00:02:11.610Z,18.93
2018-05-07T00:04:39.923Z,18.82
2018-05-07T00:07:08.286Z,18.82
2018-05-07T00:09:36.618Z,18.71
2018-05-07T00:12:04.954Z,18.54
2018-05-07T00:14:33.351Z,18.54
2018-05-07T00:17:02.442Z,18.56
2018-05-07T00:19:30.779Z,18.46
2018-05-07T00:21:59.581Z,18.30
2018-05-07T00:24:27.892Z,18.15
2018-05-07T00:26:56.228Z,18.12
2018-05-07T00:29:24.601Z,18.08
2018-05-07T00:31:52.921Z,17.97
2018-05-07T00:34:21.249Z,17.99
2018-05-07T00:36:49.615Z,17.98
2018-05-07T00:39:17.951Z,17.99
2018-05-07T00:41:46.252Z,17.89
2018-05-07T00:44:14.819Z,17.96
2018-05-07T00:46:43.148Z,17.97
2018-05-07T00:49:11.476Z,17.95
2018-05-07T00:51:40.066Z,17.84
2018-05-07T00:54:08.364Z,17.76
2018-05-07T00:56:37.470Z,17.59
2018-05-07T00:59:05.838Z,17.55
2018-05-07T01:01:34.143Z,17.54
2018-05-07T01:04:02.446Z,17.33
2018-05-07T01:06:31.024Z,17.23
2018-05-07T01:08:59.372Z,17.27
2018-05-07T01:11:27.696Z,17.09
2018-05-07T01:13:56.042Z,17.10
2018-05-07T01:16:24.391Z,17.14
2018-05-07T01:18:53.484Z,17.18
2018-05-07T01:21:22.622Z,17.04
2018-05-07T01:23:50.934Z,17.05
2018-05-07T01:26:19.245Z,17.04
2018-05-07T01:28:48.647Z,16.97
2018-05-07T01:31:16.970Z,16.93
2018-05-07T01:33:45.272Z,16.67
2018-05-07T01:36:13.648Z,16.85
2018-05-07T01:38:41.959Z,16.72
2018-05-07T01:41:11.047Z,16.72
2018-05-07T01:43:40.187Z,16.73
2018-05-07T01:46:08.530Z,16.67
2018-05-07T01:48:36.863Z,16.51
2018-05-07T01:51:05.485Z,16.48
2018-05-07T01:53:34.594Z,16.34
2018-05-07T01:56:02.926Z,16.35
2018-05-07T01:58:31.270Z,16.31
2018-05-07T02:00:59.576Z,16.33
2018-05-07T02:03:27.869Z,16.38
2018-05-07T02:05:56.199Z,16.41
2018-05-07T02:08:24.509Z,16.29
2018-05-07T02:10:52.805Z,16.23
2018-05-07T02:13:21.731Z,16.10
2018-05-07T02:15:50.826Z,16.23
2018-05-07T02:18:19.151Z,15.96
2018-05-07T02:20:47.497Z,16.01
2018-05-07T02:23:15.811Z,15.86
2018-05-07T02:25:44.160Z,15.82
2018-05-07T02:28:12.514Z,15.76
2018-05-07T02:30:41.588Z,15.58
2018-05-07T02:33:09.927Z,15.31
2018-05-07T02:35:38.663Z,15.03
2018-05-07T02:38:07.007Z,15.19
2018-05-07T02:40:35.327Z,15.16
2018-05-07T02:43:04.475Z,15.06
2018-05-07T02:45:32.782Z,15.01
2018-05-07T02:48:01.136Z,14.85
2018-05-07T02:50:29.476Z,14.91
2018-05-07T02:52:58.544Z,14.98
2018-05-07T02:55:26.846Z,14.87
2018-05-07T02:57:56.133Z,14.92
2018-05-07T03:00:25.244Z,14.92
2018-05-07T03:02:54.317Z,14.80
2018-05-07T03:05:22.688Z,14.80
2018-05-07T03:07:51.011Z,14.78
2018-05-07T03:10:19.331Z,14.63
2018-05-07T03:12:47.679Z,14.54
2018-05-07T03:15:15.981Z,14.44
2018-05-07T03:17:44.291Z,14.40
2018-05-07T03:20:13.803Z,14.39
2018-05-07T03:22:42.895Z,14.45
2018-05-07T03:25:11.986Z,14.40
2018-05-07T03:27:40.364Z,14.47
2018-05-07T03:30:08.707Z,14.43
2018-05-07T03:32:37.029Z,14.44
2018-05-07T03:35:05.381Z,14.35
2018-05-07T03:37:33.701Z,14.34
2018-05-07T03:40:02.796Z,14.26
2018-05-07T03:42:32.279Z,14.28
2018-05-07T03:45:00.580Z,14.34
2018-05-07T03:47:29.673Z,14.46
2018-05-07T03:49:58.787Z,14.49
2018-05-07T03:52:27.131Z,14.60
2018-05-07T03:54:56.238Z,14.63
2018-05-07T03:57:24.592Z,14.51
2018-05-07T03:59:53.670Z,14.54
2018-05-07T04:02:24.581Z,14.61
2018-05-07T04:04:53.229Z,14.73
2018-05-07T04:07:21.572Z,14.81
2018-05-07T04:09:49.919Z,14.82
2018-05-07T04:12:19.160Z,14.75
2018-05-07T04:14:47.500Z,14.74
2018-05-07T04:17:41.229Z,14.79
2018-05-07T04:20:27.260Z,14.87
2018-05-07T04:23:14.219Z,15.05
2018-05-07T04:25:42.630Z,14.96
2018-05-07T04:28:11.716Z,15.08
2018-05-07T04:30:40.102Z,15.22
2018-05-07T04:33:08.440Z,15.30
2018-05-07T04:35:36.782Z,15.32
2018-05-07T04:38:05.918Z,15.40
2018-05-07T04:40:34.228Z,15.46
2018-05-07T04:43:02.613Z,15.44
2018-05-07T04:45:31.243Z,15.52
2018-05-07T04:47:59.604Z,15.69
2018-05-07T04:50:28.249Z,15.78
2018-05-07T04:52:56.592Z,15.67
2018-05-07T04:55:24.894Z,15.52
2018-05-07T04:57:53.203Z,15.78
2018-05-07T05:00:21.548Z,15.98
2018-05-07T05:02:50.654Z,16.06
2018-05-07T05:05:19.730Z,16.20
2018-05-07T05:07:48.428Z,16.37
2018-05-07T05:10:16.754Z,16.53
2018-05-07T05:12:45.111Z,16.70
2018-05-07T05:15:13.475Z,16.75
2018-05-07T05:17:41.809Z,16.97
2018-05-07T05:20:10.119Z,17.09
2018-05-07T05:22:38.469Z,17.18
2018-05-07T05:25:06.783Z,17.20
2018-05-07T05:27:35.097Z,17.38
2018-05-07T05:30:04.308Z,17.61
2018-05-07T05:32:32.666Z,17.62
2018-05-07T05:35:01.765Z,17.72
2018-05-07T05:37:30.874Z,17.91
2018-05-07T05:39:59.970Z,17.70
2018-05-07T05:42:29.044Z,17.80
2018-05-07T05:44:57.388Z,17.74
2018-05-07T05:47:25.697Z,17.91
2018-05-07T05:49:54.156Z,17.79
2018-05-07T05:52:22.778Z,17.90
2018-05-07T05:54:51.868Z,17.95
2018-05-07T05:57:20.178Z,18.00
2018-05-07T05:59:48.535Z,18.04
2018-05-07T06:02:16.922Z,18.24
2018-05-07T06:04:45.272Z,18.42
2018-05-07T06:07:13.631Z,18.58
2018-05-07T06:09:42.091Z,18.70
2018-05-07T06:12:10.413Z,18.70
2018-05-07T06:14:39.061Z,18.68
2018-05-07T06:17:07.277Z,18.82
2018-05-07T06:19:35.622Z,18.85
2018-05-07T06:22:04.093Z,19.12
2018-05-07T06:24:32.438Z,19.01
2018-05-07T06:27:01.526Z,19.15
2018-05-07T06:29:29.855Z,19.41
2018-05-07T06:31:58.212Z,19.80
2018-05-07T06:34:26.679Z,20.08
2018-05-07T06:36:55.303Z,19.92
2018-05-07T06:39:23.673Z,19.97
2018-05-07T06:41:51.996Z,20.05
2018-05-07T06:44:20.370Z,19.96
2018-05-07T06:46:48.692Z,20.08
2018-05-07T06:49:17.062Z,20.09
2018-05-07T06:51:46.177Z,19.95
2018-05-07T06:54:14.516Z,20.29
2018-05-07T06:56:42.900Z,20.64
2018-05-07T06:59:11.696Z,20.84
2018-05-07T07:01:40.772Z,20.72
2018-05-07T07:04:09.099Z,20.51
2018-05-07T07:06:37.455Z,20.39
2018-05-07T07:09:06.557Z,20.52
2018-05-07T07:11:35.638Z,20.67
2018-05-07T07:14:03.985Z,20.48
2018-05-07T07:16:32.311Z,20.65
2018-05-07T07:19:00.621Z,20.81
2018-05-07T07:21:29.481Z,20.98
2018-05-07T07:23:58.564Z,20.93
2018-05-07T07:26:27.655Z,21.20
2018-05-07T07:28:56.785Z,21.17
2018-05-07T07:31:25.105Z,20.68
2018-05-07T07:33:53.488Z,20.87
2018-05-07T07:36:21.810Z,21.27
2018-05-07T07:38:50.141Z,21.48
2018-05-07T07:41:18.462Z,21.48
2018-05-07T07:43:47.090Z,21.51
2018-05-07T07:46:15.403Z,21.61
2018-05-07T07:48:43.781Z,21.77
2018-05-07T07:51:12.122Z,22.11
2018-05-07T07:53:40.438Z,22.43
2018-05-07T07:56:09.559Z,22.63
2018-05-07T07:58:38.727Z,22.46
2018-05-07T08:01:07.088Z,22.61
2018-05-07T08:03:35.460Z,22.53
2018-05-07T08:06:03.891Z,22.50
2018-05-07T08:08:32.995Z,22.82
2018-05-07T08:11:02.088Z,22.57
2018-05-07T08:13:31.240Z,22.40
2018-05-07T08:15:59.570Z,22.28
2018-05-07T08:18:27.953Z,22.67
2018-05-07T08:20:56.275Z,22.64
2018-05-07T08:23:24.644Z,22.59
2018-05-07T08:25:52.979Z,22.76
2018-05-07T08:28:22.155Z,22.72
2018-05-07T08:30:50.471Z,23.04
2018-05-07T08:33:18.791Z,23.37
2018-05-07T08:35:47.154Z,23.11
2018-05-07T08:38:15.515Z,23.22
2018-05-07T08:40:43.865Z,23.40
2018-05-07T08:43:13.006Z,23.50
2018-05-07T08:45:41.313Z,23.72
2018-05-07T08:48:09.623Z,23.48
2018-05-07T08:50:38.318Z,23.48
2018-05-07T08:53:06.781Z,23.59
2018-05-07T08:55:35.778Z,23.70
2018-05-07T08:58:04.947Z,23.86
2018-05-07T09:00:33.267Z,23.77
2018-05-07T09:03:01.594Z,23.67
2018-05-07T09:05:29.972Z,24.02
2018-05-07T09:07:58.311Z,24.37
2018-05-07T09:10:26.631Z,24.14
2018-05-07T09:12:55.473Z,24.36
2018-05-07T09:15:23.831Z,24.72
2018-05-07T09:17:52.919Z,24.37
2018-05-07T09:20:21.263Z,24.41
2018-05-07T09:22:49.612Z,24.21
2018-05-07T09:25:17.944Z,24.69
2018-05-07T09:27:46.299Z,25.26
2018-05-07T09:30:14.660Z,25.63
2018-05-07T09:32:42.972Z,25.55
2018-05-07T09:35:12.377Z,25.79
2018-05-07T09:37:40.782Z,25.72
2018-05-07T09:40:09.112Z,26.38
2018-05-07T09:42:37.474Z,26.30
2018-05-07T09:45:05.768Z,25.96
2018-05-07T09:47:34.095Z,25.82
2018-05-07T09:50:02.462Z,26.07
2018-05-07T09:52:30.768Z,26.09
2018-05-07T09:54:59.094Z,26.73
2018-05-07T09:57:27.847Z,26.78
2018-05-07T09:59:56.171Z,26.87
2018-05-07T10:02:24.481Z,26.57
2018-05-07T10:04:53.595Z,26.67
2018-05-07T10:07:22.714Z,27.29
2018-05-07T10:09:51.031Z,27.92
2018-05-07T10:12:19.699Z,27.97
2018-05-07T10:14:48.018Z,27.63
2018-05-07T10:17:17.134Z,27.98
2018-05-07T10:19:46.706Z,27.66
2018-05-07T10:22:15.038Z,27.54
2018-05-07T10:24:43.413Z,28.02
2018-05-07T10:27:11.797Z,27.87
2018-05-07T10:29:40.119Z,27.87
2018-05-07T10:32:08.438Z,27.64
2018-05-07T10:34:37.580Z,27.46
2018-05-07T10:37:05.931Z,27.68
2018-05-07T10:39:34.253Z,27.60
2018-05-07T10:42:02.849Z,27.64
2018-05-07T10:44:31.943Z,27.80
2018-05-07T10:47:00.239Z,27.55
2018-05-07T10:49:29.398Z,27.89
2018-05-07T10:51:57.711Z,28.48
2018-05-07T10:54:26.810Z,28.12
2018-05-07T10:56:55.932Z,27.67
2018-05-07T10:59:24.292Z,27.93
2018-05-07T11:01:52.649Z,28.20
2018-05-07T11:04:21.115Z,27.67
2018-05-07T11:06:49.452Z,27.80
2018-05-07T11:09:17.800Z,28.08
2018-05-07T11:11:46.222Z,27.97
2018-05-07T11:14:14.596Z,28.18
2018-05-07T11:16:42.921Z,28.68
2018-05-07T11:19:11.281Z,28.35
2018-05-07T11:21:39.619Z,28.21
2018-05-07T11:24:07.948Z,27.87
2018-05-07T11:26:36.792Z,27.99
2018-05-07T11:29:05.119Z,28.30
2018-05-07T11:31:33.458Z,28.52
2018-05-07T11:34:01.790Z,28.74
2018-05-07T11:36:30.130Z,29.00
2018-05-07T11:38:58.478Z,28.97
2018-05-07T11:41:26.863Z,29.13
2018-05-07T11:43:55.218Z,28.89
2018-05-07T11:46:24.350Z,29.18
2018-05-07T11:48:53.136Z,28.54
2018-05-07T11:51:21.473Z,28.39
2018-05-07T11:53:50.613Z,28.19
2018-05-07T11:56:18.948Z,29.09
2018-05-07T11:58:48.050Z,28.98
2018-05-07T12:01:16.357Z,29.01
2018-05-07T12:03:44.695Z,29.41
2018-05-07T12:06:13.037Z,29.52
2018-05-07T12:08:41.359Z,29.62
2018-05-07T12:11:10.720Z,29.88
2018-05-07T12:13:39.057Z,29.41
2018-05-07T12:16:07.518Z,29.18
2018-05-07T12:18:35.930Z,29.67
2018-05-07T12:21:04.240Z,29.99
2018-05-07T12:23:32.624Z,29.94
2018-05-07T12:26:01.017Z,29.15
2018-05-07T12:28:29.329Z,29.23
2018-05-07T12:30:58.413Z,29.40
2018-05-07T12:33:28.027Z,29.28
2018-05-07T12:35:56.331Z,29.27
2018-05-07T12:38:24.748Z,29.44
2018-05-07T12:40:53.121Z,28.67
2018-05-07T12:43:21.452Z,29.22
2018-05-07T12:45:50.556Z,29.73
2018-05-07T12:48:19.650Z,29.86
2018-05-07T12:50:48.730Z,29.31
2018-05-07T12:53:17.830Z,29.87
2018-05-07T12:55:47.234Z,29.81
2018-05-07T12:58:15.556Z,28.82
2018-05-07T13:00:43.855Z,28.68
2018-05-07T13:03:12.952Z,29.06
2018-05-07T13:05:41.279Z,29.14
2018-05-07T13:08:10.376Z,29.00
2018-05-07T13:10:38.747Z,28.87
2018-05-07T13:13:07.093Z,29.40
2018-05-07T13:15:35.419Z,29.82
2018-05-07T13:18:03.863Z,29.41
2018-05-07T13:20:32.171Z,29.05
2018-05-07T13:23:00.498Z,29.05
2018-05-07T13:25:28.852Z,29.17
2018-05-07T13:27:57.165Z,29.09
2018-05-07T13:30:25.467Z,29.28
2018-05-07T13:32:54.591Z,29.57
2018-05-07T13:35:23.075Z,29.40
2018-05-07T13:37:51.387Z,28.64
2018-05-07T13:40:20.747Z,28.77
2018-05-07T13:42:49.099Z,29.03
2018-05-07T13:45:17.435Z,28.56
2018-05-07T13:47:45.789Z,28.30
2018-05-07T13:50:14.092Z,28.26
2018-05-07T13:52:42.450Z,28.42
2018-05-07T13:55:10.815Z,28.74
2018-05-07T13:57:39.144Z,28.49
2018-05-07T14:00:07.472Z,28.39
2018-05-07T14:02:36.700Z,28.62
2018-05-07T14:05:05.028Z,28.69
2018-05-07T14:07:33.360Z,28.62
2018-05-07T14:10:01.719Z,28.30
2018-05-07T14:12:30.047Z,28.33
2018-05-07T14:14:58.397Z,28.15
2018-05-07T14:17:26.749Z,28.28
2018-05-07T14:19:55.834Z,28.15
2018-05-07T14:22:24.917Z,28.57
2018-05-07T14:24:54.551Z,28.88
2018-05-07T14:27:22.895Z,28.58
2018-05-07T14:29:51.200Z,28.73
2018-05-07T14:32:20.318Z,29.03
2018-05-07T14:34:48.659Z,29.21
2018-05-07T14:37:17.751Z,28.76
2018-05-07T14:39:46.871Z,28.60
2018-05-07T14:42:15.959Z,28.84
2018-05-07T14:44:45.050Z,29.13
2018-05-07T14:47:14.662Z,28.47
2018-05-07T14:49:43.759Z,28.15
2018-05-07T14:52:12.097Z,28.17
2018-05-07T14:54:40.460Z,28.46
2018-05-07T14:57:08.781Z,28.37
2018-05-07T14:59:37.119Z,28.51
2018-05-07T15:02:05.473Z,28.56
2018-05-07T15:04:33.802Z,28.64
2018-05-07T15:07:02.116Z,28.53
2018-05-07T15:09:30.812Z,27.81
2018-05-07T15:11:59.138Z,27.94
2018-05-07T15:14:27.462Z,28.43
2018-05-07T15:16:56.593Z,28.20
2018-05-07T15:19:24.935Z,28.00
2018-05-07T15:21:53.259Z,28.28
2018-05-07T15:24:21.618Z,28.59
2018-05-07T15:26:49.957Z,28.79
2018-05-07T15:29:18.327Z,28.48
2018-05-07T15:31:46.826Z,28.41
2018-05-07T15:34:15.916Z,27.83
2018-05-07T15:36:45.004Z,28.09
2018-05-07T15:39:13.369Z,28.02
2018-05-07T15:41:41.676Z,27.91
2018-05-07T15:44:10.783Z,27.76
2018-05-07T15:46:39.868Z,27.89
2018-05-07T15:49:08.210Z,27.70
2018-05-07T15:51:36.538Z,27.92
2018-05-07T15:54:05.314Z,28.33
2018-05-07T15:56:34.407Z,28.49
2018-05-07T15:59:03.495Z,28.68
2018-05-07T16:01:31.843Z,28.84
2018-05-07T16:04:00.946Z,28.21
2018-05-07T16:06:30.044Z,27.98
2018-05-07T16:08:58.438Z,28.06
2018-05-07T16:11:26.757Z,28.03
2018-05-07T16:13:55.060Z,28.15
2018-05-07T16:16:23.911Z,27.97
2018-05-07T16:18:52.282Z,27.76
2018-05-07T16:21:21.396Z,28.03
2018-05-07T16:23:49.778Z,27.81
2018-05-07T16:26:18.101Z,27.89
2018-05-07T16:28:46.423Z,28.06
2018-05-07T16:31:15.715Z,27.78
2018-05-07T16:33:43.907Z,28.14
2018-05-07T16:36:12.239Z,28.11
2018-05-07T16:38:40.841Z,27.90
2018-05-07T16:41:09.169Z,27.83
2018-05-07T16:43:37.487Z,27.80
2018-05-07T16:46:05.825Z,27.44
2018-05-07T16:48:34.148Z,27.39
2018-05-07T16:51:02.454Z,27.29
2018-05-07T16:53:30.791Z,27.64
2018-05-07T16:56:00.302Z,27.53
2018-05-07T16:58:28.629Z,27.65
2018-05-07T17:00:57.356Z,27.38
2018-05-07T17:03:25.668Z,27.23
2018-05-07T17:05:54.016Z,27.19
2018-05-07T17:08:22.450Z,27.32
2018-05-07T17:10:50.763Z,27.43
2018-05-07T17:13:19.103Z,27.76
2018-05-07T17:15:48.381Z,27.75
2018-05-07T17:18:16.702Z,27.67
2018-05-07T17:20:45.108Z,27.41
2018-05-07T17:23:13.610Z,27.08
2018-05-07T17:25:41.924Z,26.89
2018-05-07T17:28:10.263Z,26.99
2018-05-07T17:30:38.864Z,26.82
2018-05-07T17:33:07.218Z,27.04
2018-05-07T17:35:35.557Z,26.71
2018-05-07T17:38:03.922Z,26.70
2018-05-07T17:40:32.991Z,26.79
2018-05-07T17:43:01.280Z,26.74
2018-05-07T17:45:59.800Z,26.81
2018-05-07T17:48:45.676Z,26.59
2018-05-07T17:51:14.088Z,26.42
2018-05-07T17:53:42.420Z,26.50
2018-05-07T17:56:11.708Z,26.57
2018-05-07T17:58:40.086Z,26.51
2018-05-07T18:01:08.392Z,26.64
2018-05-07T18:03:37.463Z,26.61
2018-05-07T18:06:06.121Z,26.50
2018-05-07T18:08:34.512Z,26.47
2018-05-07T18:11:02.813Z,26.33
2018-05-07T18:13:31.925Z,26.50
2018-05-07T18:16:01.186Z,26.40
2018-05-07T18:18:30.114Z,26.52
2018-05-07T18:20:59.265Z,26.34
2018-05-07T18:23:27.564Z,26.31
2018-05-07T18:25:55.995Z,26.30
2018-05-07T18:28:24.730Z,26.26
2018-05-07T18:30:53.037Z,26.28
2018-05-07T18:33:22.142Z,26.34
2018-05-07T18:35:51.243Z,26.07
2018-05-07T18:38:20.391Z,26.06
2018-05-07T18:40:48.734Z,26.23
2018-05-07T18:43:17.177Z,26.32
2018-05-07T18:45:46.335Z,26.11
2018-05-07T18:48:14.709Z,25.95
2018-05-07T18:50:43.640Z,26.02
2018-05-07T18:53:11.957Z,25.87
2018-05-07T18:55:40.325Z,25.67
2018-05-07T18:58:09.044Z,25.73
2018-05-07T19:00:37.415Z,25.69
2018-05-07T19:03:05.765Z,25.72
2018-05-07T19:05:34.932Z,25.63
2018-05-07T19:08:03.315Z,25.55
2018-05-07T19:10:31.771Z,25.56
2018-05-07T19:13:00.565Z,25.44
2018-05-07T19:15:28.939Z,25.35
2018-05-07T19:17:57.292Z,25.27
2018-05-07T19:20:25.649Z,25.16
2018-05-07T19:22:54.035Z,25.15
2018-05-07T19:25:23.193Z,25.18
2018-05-07T19:27:51.547Z,25.17
2018-05-07T19:30:19.860Z,25.07
2018-05-07T19:32:48.199Z,24.98
2018-05-07T19:35:16.943Z,24.88
2018-05-07T19:37:45.271Z,24.79
2018-05-07T19:40:13.615Z,24.82
2018-05-07T19:42:41.966Z,24.69
2018-05-07T19:45:10.297Z,24.65
2018-05-07T19:47:38.617Z,24.54
2018-05-07T19:50:07.085Z,24.40
2018-05-07T19:52:35.401Z,24.40
2018-05-07T19:55:04.499Z,24.22
2018-05-07T19:57:34.086Z,24.23
2018-05-07T20:00:02.538Z,24.04
2018-05-07T20:02:30.890Z,24.04
2018-05-07T20:04:59.226Z,24.09
2018-05-07T20:07:27.556Z,24.03
2018-05-07T20:09:55.863Z,24.00
2018-05-07T20:12:24.292Z,24.08
2018-05-07T20:14:52.583Z,23.99
2018-05-07T20:17:20.982Z,23.90
2018-05-07T20:19:49.887Z,23.59
2018-05-07T20:22:18.237Z,23.54
2018-05-07T20:24:46.628Z,23.42
2018-05-07T20:27:15.011Z,23.36
2018-05-07T20:29:43.355Z,23.23
2018-05-07T20:32:11.726Z,23.28
2018-05-07T20:34:40.895Z,23.29
2018-05-07T20:37:09.228Z,23.12
2018-05-07T20:39:37.581Z,22.96
2018-05-07T20:42:06.800Z,23.04
2018-05-07T20:44:35.159Z,23.04
2018-05-07T20:47:04.277Z,22.84
2018-05-07T20:49:32.655Z,22.72
2018-05-07T20:52:01.008Z,22.63
2018-05-07T20:54:30.164Z,22.62
2018-05-07T20:56:58.525Z,22.59
2018-05-07T20:59:26.868Z,22.65
2018-05-07T21:01:55.997Z,22.53
2018-05-07T21:04:24.492Z,22.56
2018-05-07T21:06:52.809Z,22.47
2018-05-07T21:09:21.160Z,22.38
2018-05-07T21:11:49.507Z,22.30
2018-05-07T21:14:18.582Z,22.29
2018-05-07T21:16:47.643Z,22.27
2018-05-07T21:19:16.024Z,22.23
2018-05-07T21:21:44.359Z,22.06
2018-05-07T21:24:12.668Z,22.03
2018-05-07T21:26:41.412Z,21.91
2018-05-07T21:29:09.744Z,21.80
2018-05-07T21:31:38.099Z,21.74
2018-05-07T21:34:06.463Z,21.73
2018-05-07T21:36:34.769Z,21.64
2018-05-07T21:39:03.079Z,21.59
2018-05-07T21:41:31.425Z,21.46
2018-05-07T21:43:59.735Z,21.48
2018-05-07T21:46:28.076Z,21.55
2018-05-07T21:48:56.614Z,21.54
2018-05-07T21:51:25.076Z,21.44
2018-05-07T21:53:53.449Z,21.40
2018-05-07T21:56:21.829Z,21.38
2018-05-07T21:58:50.173Z,21.28
2018-05-07T22:01:18.495Z,21.16
2018-05-07T22:03:47.132Z,21.13
2018-05-07T22:06:15.468Z,21.21
2018-05-07T22:08:44.592Z,21.20
2018-05-07T22:11:13.766Z,21.13
2018-05-07T22:13:46.547Z,21.11
2018-05-07T22:16:15.683Z,21.03
2018-05-07T22:18:44.027Z,21.00
2018-05-07T22:21:13.149Z,20.98
2018-05-07T22:23:41.604Z,21.02
2018-05-07T22:26:10.693Z,21.12
2018-05-07T22:28:39.759Z,20.96
2018-05-07T22:31:08.178Z,20.84
2018-05-07T22:33:37.327Z,20.87
2018-05-07T22:36:06.427Z,20.85
2018-05-07T22:38:34.793Z,20.94
2018-05-07T22:41:07.625Z,20.91
2018-05-07T22:43:36.312Z,20.97
2018-05-07T22:46:06.057Z,21.03
2018-05-07T22:48:39.393Z,20.84
2018-05-07T22:51:07.721Z,20.87
2018-05-07T22:53:36.058Z,21.01
2018-05-07T22:56:04.413Z,20.82
2018-05-07T22:58:32.736Z,20.90
2018-05-07T23:01:01.079Z,20.77
2018-05-07T23:03:29.436Z,20.79
2018-05-07T23:05:57.753Z,20.63
2018-05-07T23:08:26.087Z,20.75
2018-05-07T23:10:54.927Z,20.61
2018-05-07T23:13:23.255Z,20.58
2018-05-07T23:15:51.577Z,20.71
2018-05-07T23:18:21.460Z,20.61
2018-05-07T23:20:49.771Z,20.60
2018-05-07T23:23:18.107Z,20.63
2018-05-07T23:25:46.480Z,20.38
2018-05-07T23:28:14.818Z,20.42
2018-05-07T23:30:43.145Z,20.34
2018-05-07T23:33:11.606Z,20.36
2018-05-07T23:35:40.711Z,20.31
2018-05-07T23:38:09.027Z,20.22
2018-05-07T23:40:37.439Z,20.19
2018-05-07T23:43:06.520Z,20.07
2018-05-07T23:45:34.846Z,20.16
2018-05-07T23:48:03.182Z,20.00
2018-05-07T23:50:31.482Z,19.90
2018-05-07T23:53:00.584Z,19.98
2018-05-07T23:55:29.008Z,19.93
2018-05-07T23:57:57.317Z,19.80
